Decoded Metar for YBBN (BRISBANE in AUSTRALIA) (IATA:BNE) | Meteo·Mobile Aviation Weather
aviador You're here:

YBBN Decoded Metar

BRISBANE in AUSTRALIA
Report Time2019-04-24 13:30:00
UTC Time2019-04-24 13:54:56
Flight Rules vfr VFR
Wind090° at 04 kt
W.Decomp.*RWY 14: 1.9 kt HW 3.5 kt LCW
RWY 01: 1.4 kt HW 3.7 kt RCW
Visibility9999 m
Phenomena:Light Shower Rain
Clouds:Few 020 Hf
Broken 055 Hf
Expected CloudBase > 1,200 ft AGL from Temp-Dew spread
Ceiling5,500 ft
Temp21°C (ISA +6)
Dew Point18°C (83% RH)
QNH1021 hPa
Density Alt725 ft
Elevation16 ft
Report Wrong Elevation
Raw Report
METAR YBBN 241330Z 09004KT 9999 FEW020 BKN055 21/18 Q1021 FM1500 20006KT
9999 -SHRA SCT025=

Extra information for YBBN:More info

Metar Taf Metar & Taf Last 4 Metars F.Rules Stats Wind Profile Meteogram Temp Stats Airport Information Weather charts Add Link Nearby VenuesMetar ALERT Operation Metar Decoded Social comments